Time;durP1;ratioP1;P1;durP2;ratioP2;P2;SDS_P1;SDS_P2;PMS_P1;PMS_P2;Temp;Humidity;BMP_temperature;BMP_pressure;BME280_temperature;BME280_humidity;BME280_pressure;Samples;Min_cycle;Max_cycle;Signal;HPM_P1;HPM_P2
2022/07/07 00:01:37;;;;;;;0.90;0.70;;;24.50;86.80;;;-143.79;100.00;62634.88;4992248;28;20038;-60
2022/07/07 00:04:04;;;;;;;1.15;0.80;;;24.20;86.80;;;-143.79;100.00;62634.88;4992099;28;20050;-60
2022/07/07 00:06:30;;;;;;;1.02;0.95;;;24.40;65.10;;;-143.79;100.00;62634.88;4992314;28;20474;-60
2022/07/07 00:08:56;;;;;;;1.73;1.10;;;;;;;-143.79;100.00;62634.88;4992289;28;20058;-60
2022/07/07 00:11:24;;;;;;;1.77;0.93;;;24.50;87.10;;;-143.79;100.00;62634.88;4992096;28;20405;-60
2022/07/07 00:13:50;;;;;;;1.17;0.82;;;;;;;-143.79;100.00;62634.88;4992200;28;20481;-60
2022/07/07 00:16:16;;;;;;;1.23;0.50;;;24.40;87.60;;;-143.79;100.00;62634.88;4992100;28;20038;-60
2022/07/07 00:18:42;;;;;;;1.00;0.90;;;;;;;-143.79;100.00;62634.88;4992188;28;20033;-60
2022/07/07 00:21:08;;;;;;;1.95;0.93;;;24.60;87.20;;;-143.79;100.00;62634.88;4992112;28;20034;-60
2022/07/07 00:23:34;;;;;;;3.22;0.68;;;24.50;87.70;;;-143.79;100.00;62634.88;4995633;28;20409;-61
2022/07/07 00:26:00;;;;;;;2.45;0.90;;;23.80;71.70;;;-143.79;100.00;62634.88;4995736;28;20073;-57
2022/07/07 00:28:26;;;;;;;1.38;0.80;;;;;;;-143.79;100.00;62634.88;4995585;28;20031;-56
2022/07/07 00:30:52;;;;;;;0.80;0.70;;;;;;;-143.79;100.00;62634.88;4995399;28;20507;-54
2022/07/07 00:33:18;;;;;;;1.52;0.80;;;;;;;-143.79;100.00;62634.88;4995491;28;20041;-54
2022/07/07 00:35:43;;;;;;;0.77;0.60;;;24.40;65.70;;;-143.79;100.00;62634.88;4995513;28;20049;-54
2022/07/07 00:38:10;;;;;;;2.13;0.70;;;;;;;-143.79;100.00;62634.88;4995449;28;20030;-55
2022/07/07 00:40:36;;;;;;;2.42;0.90;;;24.20;69.10;;;-143.79;100.00;62634.88;4995363;28;20031;-55
2022/07/07 00:43:02;;;;;;;1.35;0.70;;;24.20;84.40;;;-143.79;100.00;62634.88;4995465;28;20400;-56
2022/07/07 00:45:28;;;;;;;1.00;0.70;;;;;;;-143.79;100.00;62634.88;4995250;28;20030;-55
2022/07/07 00:47:54;;;;;;;1.85;0.90;;;24.30;81.60;;;-143.79;100.00;62634.88;4995265;28;20034;-55
2022/07/07 00:50:20;;;;;;;1.20;0.68;;;;;;;-143.79;100.00;62634.88;4995098;28;20042;-55
2022/07/07 00:52:47;;;;;;;0.80;0.65;;;24.50;76.20;;;-143.79;100.00;62634.88;4995226;28;20034;-56
2022/07/07 00:55:13;;;;;;;1.65;0.80;;;24.10;87.60;;;-143.79;100.00;62634.88;4994112;28;20035;-55
2022/07/07 00:57:39;;;;;;;0.65;0.45;;;;;;;-143.79;100.00;62634.88;4993876;28;20038;-55
2022/07/07 01:00:12;;;;;;;2.45;0.70;;;24.30;87.30;;;-143.79;100.00;62634.88;4995052;28;20042;-55
2022/07/07 01:02:39;;;;;;;1.20;0.80;;;24.20;83.70;;;-143.79;100.00;62634.88;4995083;28;20408;-55
2022/07/07 01:05:08;;;;;;;2.05;0.95;;;24.40;88.60;;;-143.79;100.00;62634.88;4995084;28;20073;-55
2022/07/07 01:07:35;;;;;;;0.70;0.50;;;;;;;-143.79;100.00;62634.88;4995145;28;20097;-54
2022/07/07 01:10:02;;;;;;;1.30;0.70;;;24.20;87.60;;;-143.79;100.00;62634.88;4994761;28;20088;-55
2022/07/07 01:12:36;;;;;;;1.60;0.75;;;23.90;87.20;;;-143.79;100.00;62634.88;4994768;28;20117;-55
2022/07/07 01:15:08;;;;;;;0.50;0.50;;;24.10;87.50;;;-143.79;100.00;62634.88;4994764;28;20038;-56
2022/07/07 01:17:35;;;;;;;1.42;0.73;;;24.20;87.40;;;-143.79;100.00;62634.88;4993413;28;20035;-56
2022/07/07 01:20:04;;;;;;;2.97;1.02;;;24.20;54.70;;;-143.79;100.00;62634.88;4995078;28;20031;-54
2022/07/07 01:22:34;;;;;;;0.90;0.60;;;24.00;58.80;;;-143.79;100.00;62634.88;4994727;28;20084;-60
2022/07/07 01:25:01;;;;;;;1.77;1.00;;;24.40;87.40;;;-143.79;100.00;62634.88;4994722;28;20065;-60
2022/07/07 01:27:27;;;;;;;0.90;0.70;;;24.30;87.40;;;-143.79;100.00;62634.88;4994561;28;20464;-60
2022/07/07 01:29:56;;;;;;;3.65;0.80;;;24.40;87.20;;;-143.79;100.00;62634.88;4994496;28;20393;-60
2022/07/07 01:32:24;;;;;;;2.25;0.73;;;24.20;87.70;;;-143.79;100.00;62634.88;4994809;28;20118;-60
2022/07/07 01:34:50;;;;;;;0.82;0.70;;;24.60;55.30;;;-143.79;100.00;62634.88;4993604;28;20034;-60
2022/07/07 01:37:18;;;;;;;0.63;0.50;;;24.20;88.20;;;-143.79;100.00;62634.88;4994397;28;20042;-60
2022/07/07 01:39:44;;;;;;;1.15;0.77;;;23.90;85.00;;;-143.79;100.00;62634.88;4994363;28;20034;-60
2022/07/07 01:42:11;;;;;;;0.65;0.63;;;24.30;87.50;;;-143.79;100.00;62634.88;4994505;28;20516;-60
2022/07/07 01:44:41;;;;;;;1.42;0.70;;;24.00;87.40;;;-143.79;100.00;62634.88;4994458;28;20049;-60
2022/07/07 01:47:09;;;;;;;2.47;0.50;;;24.00;54.70;;;-143.79;100.00;62634.88;4994237;28;20031;-60
2022/07/07 01:49:35;;;;;;;0.90;0.45;;;24.20;87.10;;;-143.79;100.00;62634.88;4994088;28;20100;-60
2022/07/07 01:52:03;;;;;;;1.23;0.70;;;24.20;87.70;;;-143.79;100.00;62634.88;4994054;28;20034;-60
2022/07/07 01:54:31;;;;;;;1.70;0.80;;;24.20;87.40;;;-143.79;100.00;62634.88;4993988;28;20030;-60
2022/07/07 01:56:57;;;;;;;1.23;0.60;;;23.90;87.00;;;-143.79;100.00;62634.88;4994044;28;20064;-60
2022/07/07 01:59:23;;;;;;;0.57;0.57;;;;;;;-143.79;100.00;62634.88;4993957;28;20085;-60
2022/07/07 02:01:49;;;;;;;0.90;0.70;;;24.30;87.20;;;-143.79;100.00;62634.88;4992583;28;20544;-60
2022/07/07 02:04:15;;;;;;;1.02;0.50;;;24.10;87.10;;;-143.79;100.00;62634.88;4993760;28;20054;-60
2022/07/07 02:06:41;;;;;;;1.15;0.50;;;23.70;86.40;;;-143.79;100.00;62634.88;4993776;28;20034;-60
2022/07/07 02:09:07;;;;;;;1.27;0.70;;;23.80;71.40;;;-143.79;100.00;62634.88;4993768;28;20034;-60
2022/07/07 02:11:34;;;;;;;0.70;0.57;;;;;;;-143.79;100.00;62634.88;4993627;28;20038;-60
2022/07/07 02:14:01;;;;;;;0.65;0.65;;;;;;;-143.79;100.00;62634.88;4993680;28;20492;-60
2022/07/07 02:16:27;;;;;;;0.47;0.47;;;24.20;85.40;;;-143.79;100.00;62634.88;4993717;28;20042;-60
2022/07/07 02:18:57;;;;;;;1.00;0.80;;;23.80;86.50;;;-143.79;100.00;62634.88;4993819;28;20076;-60
2022/07/07 02:21:23;;;;;;;;;;;24.00;55.20;;;-143.79;100.00;62634.88;4994018;28;20105;-60
2022/07/07 02:23:51;;;;;;;0.65;0.60;;;23.90;86.80;;;-143.79;100.00;62634.88;4993503;28;19914;-60
2022/07/07 02:26:18;;;;;;;0.75;0.50;;;23.80;74.90;;;-143.79;100.00;62634.88;4993454;28;20034;-60
2022/07/07 02:28:44;;;;;;;1.65;0.68;;;24.10;54.70;;;-143.79;100.00;62634.88;4993381;28;20038;-60
2022/07/07 02:31:10;;;;;;;1.02;0.60;;;24.20;71.20;;;-143.79;100.00;62634.88;4993315;28;20033;-60
2022/07/07 02:33:36;;;;;;;1.02;0.65;;;24.00;76.80;;;-143.79;100.00;62634.88;4993300;28;20038;-60
2022/07/07 02:36:04;;;;;;;0.60;0.50;;;23.90;86.60;;;-143.79;100.00;62634.88;4993361;28;20048;-60
2022/07/07 02:38:30;;;;;;;3.22;0.70;;;;;;;-143.79;100.00;62634.88;4993234;28;20037;-60
2022/07/07 02:40:56;;;;;;;1.13;0.77;;;;;;;-143.79;100.00;62634.88;4993150;28;20397;-60
2022/07/07 02:43:23;;;;;;;0.63;0.50;;;23.80;86.80;;;-143.79;100.00;62634.88;4993157;28;20045;-60
2022/07/07 02:45:50;;;;;;;1.95;0.68;;;23.90;87.00;;;-143.79;100.00;62634.88;4992996;28;20038;-60
2022/07/07 02:48:22;;;;;;;2.15;0.90;;;23.70;86.90;;;-143.79;100.00;62634.88;4993098;28;20034;-60
2022/07/07 02:50:49;;;;;;;1.13;0.80;;;24.20;87.50;;;-143.79;100.00;62634.88;4993009;28;20038;-60
2022/07/07 02:53:16;;;;;;;0.65;0.50;;;;;;;-143.79;100.00;62634.88;4991879;28;20057;-60
2022/07/07 02:55:43;;;;;;;0.70;0.60;;;24.10;60.30;;;-143.79;100.00;62634.88;4992930;28;20038;-60
2022/07/07 02:58:11;;;;;;;0.70;0.50;;;23.90;87.70;;;-143.79;100.00;62634.88;4993183;28;20075;-60
2022/07/07 03:00:39;;;;;;;1.10;0.70;;;23.90;55.00;;;-143.79;100.00;62634.88;4993157;28;20022;-60
2022/07/07 03:03:08;;;;;;;1.05;0.70;;;24.10;87.70;;;-143.79;100.00;62634.88;4992552;28;20078;-60
2022/07/07 03:05:34;;;;;;;0.70;0.50;;;23.50;54.70;;;-143.79;100.00;62634.88;4992887;28;20030;-60
2022/07/07 03:08:00;;;;;;;1.17;0.70;;;23.60;87.00;;;-143.79;100.00;62634.88;4992733;28;20508;-60
2022/07/07 03:10:27;;;;;;;0.50;0.40;;;;;;;-143.79;100.00;62634.88;4992648;28;20084;-60
2022/07/07 03:12:52;;;;;;;2.90;0.70;;;24.30;87.50;;;-143.79;100.00;62634.88;4992761;28;20430;-60
2022/07/07 03:15:19;;;;;;;1.00;0.80;;;24.10;87.80;;;-143.79;100.00;62634.88;4992652;28;20034;-59
2022/07/07 03:17:46;;;;;;;0.75;0.60;;;24.00;70.00;;;-143.79;100.00;62634.88;4992692;28;20061;-59
2022/07/07 03:20:15;;;;;;;1.30;0.47;;;24.00;87.80;;;-143.79;100.00;62634.88;4992616;28;20026;-59
2022/07/07 03:22:42;;;;;;;0.63;0.55;;;24.20;55.50;;;-143.79;100.00;62634.88;4992650;28;20035;-59
2022/07/07 03:25:09;;;;;;;0.93;0.70;;;23.90;55.20;;;-143.79;100.00;62634.88;4992581;28;20066;-61
2022/07/07 03:27:35;;;;;;;0.85;0.40;;;24.10;87.80;;;-143.79;100.00;62634.88;4992636;28;20038;-59
2022/07/07 03:30:03;;;;;;;0.70;0.45;;;24.10;87.80;;;-143.79;100.00;62634.88;4991433;28;20614;-59
2022/07/07 03:32:29;;;;;;;1.33;0.40;;;;;;;-143.79;100.00;62634.88;4992863;28;20034;-59
2022/07/07 03:34:55;;;;;;;0.77;0.60;;;;;;;-143.79;100.00;62634.88;4992512;28;20041;-59
2022/07/07 03:37:22;;;;;;;0.77;0.50;;;;;;;-143.79;100.00;62634.88;4992507;28;20030;-59
2022/07/07 03:39:48;;;;;;;0.77;0.63;;;;;;;-143.79;100.00;62634.88;4992452;28;20049;-59
2022/07/07 03:42:13;;;;;;;2.35;0.73;;;23.50;61.10;;;-143.79;100.00;62634.88;4992406;28;20034;-59
2022/07/07 03:44:39;;;;;;;2.00;0.70;;;;;;;-143.79;100.00;62634.88;4992683;28;20034;-59
2022/07/07 03:47:06;;;;;;;0.75;0.50;;;;;;;-143.79;100.00;62634.88;4992385;28;20030;-60
2022/07/07 03:49:32;;;;;;;1.23;0.45;;;;;;;-143.79;100.00;62634.88;4992355;28;20070;-60
2022/07/07 03:51:58;;;;;;;1.08;0.70;;;23.70;59.40;;;-143.79;100.00;62634.88;4992556;28;20393;-60
2022/07/07 03:54:24;;;;;;;1.05;0.43;;;;;;;-143.79;100.00;62634.88;4992631;28;20092;-59
2022/07/07 03:56:50;;;;;;;1.13;0.57;;;;;;;-143.79;100.00;62634.88;4993298;28;20066;-60
2022/07/07 03:59:16;;;;;;;1.10;0.50;;;;;;;-143.79;100.00;62634.88;4996115;28;20057;-60
2022/07/07 04:01:44;;;;;;;1.02;0.40;;;24.00;69.30;;;-143.79;100.00;62634.88;4996032;28;20113;-59
2022/07/07 04:04:11;;;;;;;1.10;0.52;;;24.10;89.80;;;-143.79;100.00;62634.88;4995930;28;20046;-60
2022/07/07 04:06:37;;;;;;;1.83;0.70;;;;;;;-143.79;100.00;62634.88;4996159;28;20034;-60
2022/07/07 04:09:03;;;;;;;0.50;0.40;;;;;;;-143.79;100.00;62634.88;4996009;28;20056;-60
2022/07/07 04:11:30;;;;;;;1.25;0.60;;;;;;;-143.79;100.00;62634.88;4995891;28;20062;-60
2022/07/07 04:13:56;;;;;;;1.35;0.40;;;;;;;-143.79;100.00;62634.88;4995891;28;20038;-60
2022/07/07 04:16:22;;;;;;;1.75;0.52;;;;;;;-143.79;100.00;62634.88;4995801;28;20106;-60
2022/07/07 04:18:48;;;;;;;0.82;0.40;;;;;;;-143.79;100.00;62634.88;4995823;28;20042;-60
2022/07/07 04:21:14;;;;;;;0.60;0.50;;;23.40;72.20;;;-143.79;100.00;62634.88;4996009;28;20037;-60
2022/07/07 04:23:40;;;;;;;2.30;0.50;;;;;;;-143.79;100.00;62634.88;4995798;28;20030;-60
2022/07/07 04:26:06;;;;;;;2.05;0.40;;;;;;;-143.79;100.00;62634.88;4995702;28;20030;-60
2022/07/07 04:28:32;;;;;;;1.60;0.50;;;;;;;-143.79;100.00;62634.88;4995662;28;20038;-60
2022/07/07 04:30:58;;;;;;;0.75;0.50;;;;;;;-143.79;100.00;62634.88;4995490;28;20386;-60
2022/07/07 04:33:24;;;;;;;1.80;0.60;;;;;;;-143.79;100.00;62634.88;4995469;28;20033;-60
2022/07/07 04:35:50;;;;;;;1.85;0.77;;;23.40;75.40;;;-143.79;100.00;62634.88;4995441;28;20035;-60
2022/07/07 04:38:16;;;;;;;1.13;0.47;;;;;;;-143.79;100.00;62634.88;4995422;28;20038;-60
2022/07/07 04:40:41;;;;;;;1.42;0.60;;;24.00;57.20;;;-143.79;100.00;62634.88;4995428;28;20069;-59
2022/07/07 04:43:08;;;;;;;1.25;0.60;;;;;;;-143.79;100.00;62634.88;4995393;28;20070;-61
2022/07/07 04:45:34;;;;;;;0.93;0.60;;;23.40;59.40;;;-143.79;100.00;62634.88;4995248;28;20037;-60
2022/07/07 04:48:00;;;;;;;1.70;0.60;;;23.80;90.80;;;-143.79;100.00;62634.88;4995303;28;20070;-61
2022/07/07 04:50:26;;;;;;;0.68;0.55;;;23.80;81.60;;;-143.79;100.00;62634.88;4995422;28;20062;-61
2022/07/07 04:52:55;;;;;;;1.27;0.70;;;24.00;63.30;;;-143.79;100.00;62634.88;4995244;28;20089;-59
2022/07/07 04:55:20;;;;;;;1.92;0.50;;;23.90;90.20;;;-143.79;100.00;62634.88;4995416;28;20117;-61
2022/07/07 04:57:46;;;;;;;0.80;0.52;;;24.00;90.10;;;-143.79;100.00;62634.88;4993868;28;20520;-59
2022/07/07 05:00:13;;;;;;;1.08;0.45;;;24.00;89.40;;;-143.79;100.00;62634.88;4993802;28;20030;-61
2022/07/07 05:02:38;;;;;;;2.85;0.75;;;23.70;89.60;;;-143.79;100.00;62634.88;4995050;28;20070;-61
2022/07/07 05:05:06;;;;;;;2.45;0.70;;;24.00;89.80;;;-143.79;100.00;62634.88;4995004;28;20105;-61
2022/07/07 05:07:32;;;;;;;1.38;0.40;;;;;;;-143.79;100.00;62634.88;4994525;28;20046;-61
2022/07/07 05:09:58;;;;;;;1.30;0.60;;;23.50;89.80;;;-143.79;100.00;62634.88;4993956;28;20043;-61
2022/07/07 05:12:24;;;;;;;1.77;0.50;;;23.80;62.00;;;-143.79;100.00;62634.88;4994845;28;20118;-60
2022/07/07 05:14:50;;;;;;;4.50;0.70;;;23.90;64.20;;;-143.79;100.00;62634.88;4994839;28;20046;-61
2022/07/07 05:17:16;;;;;;;6.30;1.25;;;23.90;71.40;;;-143.79;100.00;62634.88;4994750;28;20049;-60
2022/07/07 05:19:42;;;;;;;10.32;0.98;;;;;;;-143.79;100.00;62634.88;4994768;28;20027;-60
2022/07/07 05:22:08;;;;;;;4.88;0.90;;;;;;;-143.79;100.00;62634.88;4994746;28;20089;-60
2022/07/07 05:24:34;;;;;;;13.63;1.55;;;23.60;70.20;;;-143.79;100.00;62634.88;4994668;28;20101;-60
2022/07/07 05:27:00;;;;;;;5.30;1.30;;;23.80;68.80;;;-143.79;100.00;62634.88;4994690;28;20440;-60
2022/07/07 05:29:26;;;;;;;8.02;1.27;;;23.80;66.90;;;-143.79;100.00;62634.88;4994489;28;20035;-60
2022/07/07 05:31:53;;;;;;;5.20;0.98;;;23.50;89.90;;;-143.79;100.00;62634.88;4994611;28;20034;-60
2022/07/07 05:34:18;;;;;;;5.30;1.40;;;23.30;77.30;;;-143.79;100.00;62634.88;4994539;28;20053;-60
2022/07/07 05:36:44;;;;;;;5.10;1.25;;;23.90;89.90;;;-143.79;100.00;62634.88;4994423;28;20077;-60
2022/07/07 05:39:13;;;;;;;6.75;1.40;;;23.60;73.20;;;-143.79;100.00;62634.88;4994513;28;20034;-54
2022/07/07 05:41:39;;;;;;;6.63;1.20;;;;;;;-143.79;100.00;62634.88;4994654;28;20036;-54
2022/07/07 05:44:05;;;;;;;6.38;1.00;;;23.60;90.00;;;-143.79;100.00;62634.88;4994390;28;20529;-52
2022/07/07 05:46:31;;;;;;;4.55;0.88;;;23.80;89.90;;;-143.79;100.00;62634.88;4994175;28;20066;-54
2022/07/07 05:48:56;;;;;;;3.60;0.90;;;23.70;90.00;;;-143.79;100.00;62634.88;4994274;28;20035;-55
2022/07/07 05:51:22;;;;;;;3.05;0.98;;;;;;;-143.79;100.00;62634.88;4994078;28;20066;-55
2022/07/07 05:53:48;;;;;;;5.00;1.10;;;23.80;70.30;;;-143.79;100.00;62634.88;4994104;28;20057;-56
2022/07/07 05:56:16;;;;;;;2.65;0.80;;;24.00;80.20;;;-143.79;100.00;62634.88;4994136;28;20031;-56
2022/07/07 05:58:42;;;;;;;4.05;1.00;;;23.90;89.30;;;-143.79;100.00;62634.88;4994056;28;20038;-56
2022/07/07 06:01:08;;;;;;;7.47;1.00;;;23.50;89.30;;;-143.79;100.00;62634.88;4994317;28;20038;-53
2022/07/07 06:03:34;;;;;;;4.30;1.08;;;23.60;76.00;;;-143.79;100.00;62634.88;4993795;28;20054;-55
2022/07/07 06:06:00;;;;;;;4.75;0.70;;;23.60;89.00;;;-143.79;100.00;62634.88;4994013;28;20521;-54
2022/07/07 06:08:28;;;;;;;2.72;0.88;;;;;;;-143.79;100.00;62634.88;4993873;28;20062;-54
2022/07/07 06:10:54;;;;;;;4.57;1.20;;;;;;;-143.79;100.00;62634.88;4993882;28;20031;-55
2022/07/07 06:13:20;;;;;;;4.55;0.90;;;23.80;88.40;;;-143.79;100.00;62634.88;4992715;28;20038;-54
2022/07/07 06:15:46;;;;;;;4.90;1.13;;;23.30;69.80;;;-143.79;100.00;62634.88;4993905;28;20030;-54
2022/07/07 06:18:12;;;;;;;5.93;1.00;;;23.90;66.10;;;-143.79;100.00;62634.88;4993818;28;20034;-55
2022/07/07 06:20:38;;;;;;;5.93;1.35;;;;;;;-143.79;100.00;62634.88;4993407;28;20038;-54
2022/07/07 06:23:04;;;;;;;6.65;1.25;;;23.90;61.20;;;-143.79;100.00;62634.88;4993850;28;20026;-53
2022/07/07 06:25:30;;;;;;;5.07;0.88;;;;;;;-143.79;100.00;62634.88;4993622;28;20456;-54
2022/07/07 06:27:56;;;;;;;6.38;1.05;;;23.90;65.20;;;-143.79;100.00;62634.88;4993606;28;20038;-54
2022/07/07 06:30:22;;;;;;;5.95;1.10;;;;;;;-143.79;100.00;62634.88;4993750;28;20030;-55
2022/07/07 06:32:48;;;;;;;3.63;0.95;;;23.90;70.00;;;-143.79;100.00;62634.88;4993584;28;20035;-54
2022/07/07 06:35:14;;;;;;;2.50;0.98;;;;;;;-143.79;100.00;62634.88;4993562;28;20453;-55
2022/07/07 06:37:40;;;;;;;4.13;1.02;;;;;;;-143.79;100.00;62634.88;4993663;28;20053;-54
2022/07/07 06:40:07;;;;;;;6.05;1.20;;;23.90;61.20;;;-143.79;100.00;62634.88;4993438;28;20092;-53
2022/07/07 06:42:33;;;;;;;4.50;0.95;;;23.70;89.30;;;-143.79;100.00;62634.88;4993189;28;20073;-54
2022/07/07 06:44:59;;;;;;;3.63;0.98;;;24.20;90.10;;;-143.79;100.00;62634.88;4993081;28;20125;-54
2022/07/07 06:47:24;;;;;;;4.60;1.08;;;23.80;81.00;;;-143.79;100.00;62634.88;4992887;28;20401;-55
2022/07/07 06:49:50;;;;;;;6.95;1.20;;;23.70;90.20;;;-143.79;100.00;62634.88;4991911;28;20038;-54
2022/07/07 06:52:16;;;;;;;3.00;0.80;;;23.50;90.10;;;-143.79;100.00;62634.88;4993579;28;20049;-54
2022/07/07 06:54:42;;;;;;;2.13;0.88;;;23.90;90.40;;;-143.79;100.00;62634.88;4993478;28;20496;-55
2022/07/07 06:57:08;;;;;;;5.05;1.08;;;24.00;86.90;;;-143.79;100.00;62634.88;4993132;28;20038;-55
2022/07/07 06:59:34;;;;;;;4.88;1.48;;;23.80;90.00;;;-143.79;100.00;62634.88;4993280;28;20463;-54
2022/07/07 07:02:00;;;;;;;6.07;1.08;;;23.60;89.80;;;-143.79;100.00;62634.88;4992937;28;20106;-54
2022/07/07 07:04:26;;;;;;;3.08;1.17;;;23.60;90.10;;;-143.79;100.00;62634.88;4992944;28;20057;-54
2022/07/07 07:06:52;;;;;;;1.83;0.70;;;24.00;88.40;;;-143.79;100.00;62634.88;4992933;28;20389;-55
2022/07/07 07:09:18;;;;;;;5.28;1.63;;;23.70;83.30;;;-143.79;100.00;62634.88;4993305;28;20089;-55
2022/07/07 07:11:44;;;;;;;4.47;1.00;;;;;;;-143.79;100.00;62634.88;4993203;28;20068;-54
2022/07/07 07:14:10;;;;;;;4.60;1.00;;;24.00;72.70;;;-143.79;100.00;62634.88;4992857;28;20046;-55
2022/07/07 07:16:36;;;;;;;2.45;0.80;;;;;;;-143.79;100.00;62634.88;4992827;28;20039;-53
2022/07/07 07:19:03;;;;;;;2.95;0.98;;;;;;;-143.79;100.00;62634.88;4991581;28;20034;-55
2022/07/07 07:21:29;;;;;;;3.95;1.25;;;;;;;-143.79;100.00;62634.88;4992882;28;20389;-55
2022/07/07 07:23:55;;;;;;;4.45;0.90;;;23.50;89.40;;;-143.79;100.00;62634.88;4992730;28;20033;-53
2022/07/07 07:26:21;;;;;;;4.75;1.05;;;23.50;88.60;;;-143.79;100.00;62634.88;4992763;28;20515;-53
2022/07/07 07:28:47;;;;;;;3.78;0.88;;;23.30;70.00;;;-143.79;100.00;62634.88;4992758;28;20035;-54
2022/07/07 07:31:13;;;;;;;3.88;0.88;;;23.60;89.60;;;-143.79;100.00;62634.88;4992644;28;20073;-55
2022/07/07 07:33:38;;;;;;;2.88;0.93;;;23.50;89.30;;;-143.79;100.00;62634.88;4996765;28;20041;-54
2022/07/07 07:36:07;;;;;;;3.80;0.95;;;23.60;88.50;;;-143.79;100.00;62634.88;4996993;28;20026;-54
2022/07/07 07:38:35;;;;;;;2.40;0.70;;;;;;;-143.79;100.00;62634.88;4996776;28;20432;-55
2022/07/07 07:41:02;;;;;;;6.07;0.75;;;23.60;89.60;;;-143.79;100.00;62634.88;4997010;28;20110;-55
2022/07/07 07:43:28;;;;;;;4.60;0.93;;;23.60;89.70;;;-143.79;100.00;62634.88;4996769;28;20034;-53
2022/07/07 07:45:54;;;;;;;2.63;0.80;;;23.80;89.40;;;-143.79;100.00;62634.88;4996460;28;20031;-55
2022/07/07 07:48:19;;;;;;;4.30;1.08;;;23.60;66.10;;;-143.79;100.00;62634.88;4996395;28;20046;-55
2022/07/07 07:50:46;;;;;;;3.85;1.00;;;;;;;-143.79;100.00;62634.88;4996141;28;20042;-54
2022/07/07 07:53:12;;;;;;;4.00;1.02;;;23.70;55.80;;;-143.79;100.00;62634.88;4996388;28;20034;-55
2022/07/07 07:55:39;;;;;;;4.35;1.10;;;;;;;-143.79;100.00;62634.88;4996665;28;20089;-55
2022/07/07 07:58:05;;;;;;;4.25;1.10;;;;;;;-143.79;100.00;62634.88;4996305;28;20038;-54
2022/07/07 08:00:31;;;;;;;2.78;0.63;;;23.70;55.40;;;-143.79;100.00;62634.88;4996331;28;20113;-56
2022/07/07 08:02:57;;;;;;;5.82;0.82;;;23.70;88.80;;;-143.79;100.00;62634.88;4996025;28;20057;-55
2022/07/07 08:05:23;;;;;;;5.82;1.00;;;23.10;88.10;;;-143.79;100.00;62634.88;4996172;28;20031;-54
2022/07/07 08:07:49;;;;;;;1.52;0.60;;;23.80;88.40;;;-143.79;100.00;62634.88;4996195;28;20445;-55
2022/07/07 08:10:16;;;;;;;3.63;0.70;;;23.50;88.10;;;-143.79;100.00;62634.88;4996076;28;20034;-54
2022/07/07 08:12:43;;;;;;;5.00;0.90;;;23.40;75.30;;;-143.79;100.00;62634.88;4996259;28;20393;-55
2022/07/07 08:15:10;;;;;;;1.63;0.47;;;24.00;88.50;;;-143.79;100.00;62634.88;4996332;28;20431;-55
2022/07/07 08:17:36;;;;;;;2.25;0.68;;;23.30;85.20;;;-143.79;100.00;62634.88;4996293;28;20077;-55
2022/07/07 08:20:03;;;;;;;2.97;0.77;;;23.70;61.40;;;-143.79;100.00;62634.88;4995948;28;20034;-55
2022/07/07 08:22:30;;;;;;;5.18;1.08;;;;;;;-143.79;100.00;62634.88;4996243;28;20402;-56
2022/07/07 08:24:56;;;;;;;2.42;0.60;;;;;;;-143.79;100.00;62634.88;4996039;28;20031;-55
2022/07/07 08:27:22;;;;;;;3.60;0.77;;;;;;;-143.79;100.00;62634.88;4995731;28;20077;-55
2022/07/07 08:29:49;;;;;;;2.97;0.60;;;23.40;71.80;;;-143.79;100.00;62634.88;4995626;28;20509;-55
2022/07/07 08:32:15;;;;;;;2.17;0.70;;;;;;;-143.79;100.00;62634.88;4995665;28;20034;-54
2022/07/07 08:34:42;;;;;;;2.80;0.60;;;23.90;89.10;;;-143.79;100.00;62634.88;4995652;28;20038;-53
2022/07/07 08:37:09;;;;;;;4.05;0.80;;;23.70;55.00;;;-143.79;100.00;62634.88;4995908;28;20113;-54
2022/07/07 08:39:35;;;;;;;4.72;0.85;;;23.40;88.80;;;-143.79;100.00;62634.88;4995639;28;20043;-54
2022/07/07 08:42:01;;;;;;;6.07;0.88;;;23.60;89.50;;;-143.79;100.00;62634.88;4995561;28;20121;-55
2022/07/07 08:44:27;;;;;;;3.28;0.52;;;23.90;89.50;;;-143.79;100.00;62634.88;4995299;28;20038;-55
2022/07/07 08:46:53;;;;;;;3.95;0.90;;;23.60;90.20;;;-143.79;100.00;62634.88;4995495;28;20035;-55
2022/07/07 08:49:19;;;;;;;4.35;0.95;;;23.40;90.60;;;-143.79;100.00;62634.88;4995403;28;20296;-55
2022/07/07 08:51:46;;;;;;;5.90;0.85;;;23.40;90.10;;;-143.79;100.00;62634.88;4994233;28;20034;-55
2022/07/07 08:54:15;;;;;;;1.60;0.52;;;23.70;56.30;;;-143.79;100.00;62634.88;4995230;28;20050;-54
2022/07/07 08:56:42;;;;;;;3.77;0.90;;;23.30;90.20;;;-143.79;100.00;62634.88;4995665;28;20030;-56
2022/07/07 08:59:11;;;;;;;1.42;0.52;;;23.90;75.90;;;-143.79;100.00;62634.88;4993933;28;20038;-55
2022/07/07 09:01:37;;;;;;;1.30;0.55;;;23.80;79.20;;;-143.79;100.00;62634.88;4995455;28;20049;-54
2022/07/07 09:04:04;;;;;;;2.60;0.70;;;23.50;89.80;;;-143.79;100.00;62634.88;4995015;28;20117;-55
2022/07/07 09:06:30;;;;;;;2.28;0.60;;;23.70;55.90;;;-143.79;100.00;62634.88;4993852;28;20408;-54
2022/07/07 09:08:57;;;;;;;1.73;0.60;;;24.00;74.40;;;-143.79;100.00;62634.88;4995126;28;20536;-52
2022/07/07 09:11:26;;;;;;;2.60;0.60;;;23.90;88.80;;;-143.79;100.00;62634.88;4995039;28;20039;-52
2022/07/07 09:13:57;;;;;;;1.70;0.38;;;23.60;61.20;;;-143.79;100.00;62634.88;4995014;28;20038;-55
2022/07/07 09:16:23;;;;;;;3.65;0.75;;;24.00;89.50;;;-143.79;100.00;62634.88;4995117;28;20030;-51
2022/07/07 09:18:49;;;;;;;3.80;0.60;;;23.40;89.40;;;-143.79;100.00;62634.88;4994930;28;20041;-55
2022/07/07 09:21:32;;;;;;;3.05;0.90;;;24.10;89.60;;;-143.79;100.00;62634.88;4994958;28;20436;-54
2022/07/07 09:24:01;;;;;;;3.53;0.90;;;23.80;57.00;;;-143.79;100.00;62634.88;4993588;28;20041;-55
2022/07/07 09:26:56;;;;;;;1.42;0.60;;;23.90;90.40;;;-143.79;100.00;62634.88;4994769;28;20035;-55
2022/07/07 09:29:23;;;;;;;2.97;0.88;;;23.60;56.50;;;-143.79;100.00;62634.88;4994268;28;20095;-55
2022/07/07 09:31:55;;;;;;;2.20;0.65;;;23.70;90.20;;;-143.79;100.00;62634.88;4994589;28;20177;-55
2022/07/07 09:34:30;;;;;;;4.65;0.73;;;23.80;55.10;;;-143.79;100.00;62634.88;4994586;28;20038;-54
2022/07/07 09:39:52;;;;;;;1.45;0.57;;;23.90;90.20;;;-143.79;100.00;62634.88;4993837;28;20456;-56
2022/07/07 09:42:31;;;;;;;2.85;0.75;;;23.80;54.80;;;-143.79;100.00;62634.88;4994664;28;20031;-54
2022/07/07 09:45:07;;;;;;;2.15;0.65;;;24.20;89.90;;;-143.79;100.00;62634.88;4994749;28;20051;-52
2022/07/07 09:47:33;;;;;;;2.85;0.50;;;23.90;90.20;;;-143.79;100.00;62634.88;4994409;28;20042;-55
2022/07/07 09:50:14;;;;;;;2.17;0.50;;;23.40;90.00;;;-143.79;100.00;62634.88;4994244;28;20038;-56
2022/07/07 09:52:45;;;;;;;1.17;0.52;;;23.80;69.90;;;-143.79;100.00;62634.88;4993135;28;20038;-54
2022/07/07 09:55:12;;;;;;;3.20;0.90;;;23.80;90.70;;;-143.79;100.00;62634.88;4993484;28;20031;-56
2022/07/07 09:57:42;;;;;;;1.08;0.47;;;23.70;57.80;;;-143.79;100.00;62634.88;4992965;28;20069;-54
2022/07/07 10:00:09;;;;;;;1.73;0.85;;;23.50;69.00;;;-143.79;100.00;62634.88;4976888;28;20508;-55
2022/07/07 10:02:36;;;;;;;3.53;0.60;;;;;;;-143.79;100.00;62634.88;4992463;28;20134;-55
2022/07/07 10:05:04;;;;;;;1.45;0.50;;;23.80;90.50;;;-143.79;100.00;62634.88;4994012;28;20117;-56
2022/07/07 10:07:34;;;;;;;2.30;0.60;;;23.80;55.90;;;-143.79;100.00;62634.88;4994149;28;20034;-54
2022/07/07 10:10:09;;;;;;;2.50;0.75;;;23.80;54.60;;;-143.79;100.00;62634.88;4994162;28;20038;-55
2022/07/07 10:12:44;;;;;;;2.78;0.50;;;23.60;88.00;;;-143.79;100.00;62634.88;4993944;28;20382;-55
2022/07/07 10:15:13;;;;;;;2.03;0.50;;;;;;;-143.79;100.00;62634.88;4994215;28;20165;-55
2022/07/07 10:17:41;;;;;;;2.17;0.63;;;24.10;89.60;;;-143.79;100.00;62634.88;4993904;28;20034;-56
2022/07/07 10:20:08;;;;;;;4.60;0.77;;;23.80;56.30;;;-143.79;100.00;62634.88;4994118;28;20105;-56